sensor_id;sensor_type;location;lat;lon;timestamp;temperature;humidity
24452;DHT22;13350;50.984;5.822;2023-06-19T00:01:59;21.00;99.90
24452;DHT22;13350;50.984;5.822;2023-06-19T00:04:26;21.00;99.90
24452;DHT22;13350;50.984;5.822;2023-06-19T00:06:53;20.90;99.90
24452;DHT22;13350;50.984;5.822;2023-06-19T00:09:20;20.80;99.90
24452;DHT22;13350;50.984;5.822;2023-06-19T00:11:47;20.80;99.90
24452;DHT22;13350;50.984;5.822;2023-06-19T00:14:14;20.80;99.90
24452;DHT22;13350;50.984;5.822;2023-06-19T00:16:41;20.70;99.90
24452;DHT22;13350;50.984;5.822;2023-06-19T00:19:09;20.60;99.90
24452;DHT22;13350;50.984;5.822;2023-06-19T00:21:37;20.60;99.90
24452;DHT22;13350;50.984;5.822;2023-06-19T00:24:04;20.50;99.90
24452;DHT22;13350;50.984;5.822;2023-06-19T00:26:31;20.50;99.90
24452;DHT22;13350;50.984;5.822;2023-06-19T00:28:58;20.50;99.90
24452;DHT22;13350;50.984;5.822;2023-06-19T00:31:25;20.50;99.90
24452;DHT22;13350;50.984;5.822;2023-06-19T00:33:53;20.50;99.90
24452;DHT22;13350;50.984;5.822;2023-06-19T00:36:21;20.50;99.90
24452;DHT22;13350;50.984;5.822;2023-06-19T00:38:51;20.50;99.90
24452;DHT22;13350;50.984;5.822;2023-06-19T00:41:18;20.60;99.90
24452;DHT22;13350;50.984;5.822;2023-06-19T00:43:46;20.60;99.90
24452;DHT22;13350;50.984;5.822;2023-06-19T00:46:13;20.80;99.90
24452;DHT22;13350;50.984;5.822;2023-06-19T00:48:40;20.80;99.90
24452;DHT22;13350;50.984;5.822;2023-06-19T00:51:07;20.80;99.90
24452;DHT22;13350;50.984;5.822;2023-06-19T00:53:36;20.80;99.90
24452;DHT22;13350;50.984;5.822;2023-06-19T00:56:03;20.80;99.90
24452;DHT22;13350;50.984;5.822;2023-06-19T00:58:31;20.70;99.90
24452;DHT22;13350;50.984;5.822;2023-06-19T01:00:59;20.50;99.90
24452;DHT22;13350;50.984;5.822;2023-06-19T01:03:25;20.40;99.90
24452;DHT22;13350;50.984;5.822;2023-06-19T01:05:53;20.40;99.90
24452;DHT22;13350;50.984;5.822;2023-06-19T01:08:25;20.30;99.90
24452;DHT22;13350;50.984;5.822;2023-06-19T01:10:59;20.30;99.90
24452;DHT22;13350;50.984;5.822;2023-06-19T01:13:28;20.40;99.90
24452;DHT22;13350;50.984;5.822;2023-06-19T01:15:58;20.40;99.90
24452;DHT22;13350;50.984;5.822;2023-06-19T01:18:25;20.40;99.90
24452;DHT22;13350;50.984;5.822;2023-06-19T01:20:52;20.30;99.90
24452;DHT22;13350;50.984;5.822;2023-06-19T01:23:21;20.40;99.90
24452;DHT22;13350;50.984;5.822;2023-06-19T01:25:48;20.40;99.90
24452;DHT22;13350;50.984;5.822;2023-06-19T01:28:15;20.40;99.90
24452;DHT22;13350;50.984;5.822;2023-06-19T01:30:43;20.50;99.90
24452;DHT22;13350;50.984;5.822;2023-06-19T01:33:12;20.40;99.90
24452;DHT22;13350;50.984;5.822;2023-06-19T01:35:42;20.40;99.90
24452;DHT22;13350;50.984;5.822;2023-06-19T01:38:10;20.50;99.90
24452;DHT22;13350;50.984;5.822;2023-06-19T01:40:38;20.50;99.90
24452;DHT22;13350;50.984;5.822;2023-06-19T01:43:06;20.50;99.90
24452;DHT22;13350;50.984;5.822;2023-06-19T01:45:34;20.50;99.90
24452;DHT22;13350;50.984;5.822;2023-06-19T01:48:01;20.50;99.90
24452;DHT22;13350;50.984;5.822;2023-06-19T01:50:28;20.40;99.90
24452;DHT22;13350;50.984;5.822;2023-06-19T01:52:55;20.40;99.90
24452;DHT22;13350;50.984;5.822;2023-06-19T01:55:22;20.30;99.90
24452;DHT22;13350;50.984;5.822;2023-06-19T01:57:50;20.20;99.90
24452;DHT22;13350;50.984;5.822;2023-06-19T02:00:17;20.20;99.90
24452;DHT22;13350;50.984;5.822;2023-06-19T02:02:45;20.10;99.90
24452;DHT22;13350;50.984;5.822;2023-06-19T02:05:11;20.10;99.90
24452;DHT22;13350;50.984;5.822;2023-06-19T02:07:39;20.00;99.90
24452;DHT22;13350;50.984;5.822;2023-06-19T02:10:06;20.00;99.90
24452;DHT22;13350;50.984;5.822;2023-06-19T02:12:34;19.90;99.90
24452;DHT22;13350;50.984;5.822;2023-06-19T02:15:02;19.90;99.90
24452;DHT22;13350;50.984;5.822;2023-06-19T02:17:29;19.80;99.90
24452;DHT22;13350;50.984;5.822;2023-06-19T02:19:56;19.80;99.90
24452;DHT22;13350;50.984;5.822;2023-06-19T02:22:23;19.70;99.90
24452;DHT22;13350;50.984;5.822;2023-06-19T02:24:50;19.60;99.90
24452;DHT22;13350;50.984;5.822;2023-06-19T02:27:17;19.60;99.90
24452;DHT22;13350;50.984;5.822;2023-06-19T02:29:43;19.70;99.90
24452;DHT22;13350;50.984;5.822;2023-06-19T02:32:12;19.70;99.90
24452;DHT22;13350;50.984;5.822;2023-06-19T02:34:39;19.70;99.90
24452;DHT22;13350;50.984;5.822;2023-06-19T02:37:06;19.70;99.90
24452;DHT22;13350;50.984;5.822;2023-06-19T02:39:33;19.70;99.90
24452;DHT22;13350;50.984;5.822;2023-06-19T02:42:00;19.70;99.90
24452;DHT22;13350;50.984;5.822;2023-06-19T02:44:27;19.60;99.90
24452;DHT22;13350;50.984;5.822;2023-06-19T02:46:54;19.70;99.90
24452;DHT22;13350;50.984;5.822;2023-06-19T02:49:22;19.70;99.90
24452;DHT22;13350;50.984;5.822;2023-06-19T02:51:49;19.60;99.90
24452;DHT22;13350;50.984;5.822;2023-06-19T02:54:16;19.60;99.90
24452;DHT22;13350;50.984;5.822;2023-06-19T02:56:43;19.60;99.90
24452;DHT22;13350;50.984;5.822;2023-06-19T02:59:10;19.50;99.90
24452;DHT22;13350;50.984;5.822;2023-06-19T03:01:37;19.30;99.90
24452;DHT22;13350;50.984;5.822;2023-06-19T03:04:03;19.10;99.90
24452;DHT22;13350;50.984;5.822;2023-06-19T03:06:32;19.00;99.90
24452;DHT22;13350;50.984;5.822;2023-06-19T03:09:04;18.90;99.90
24452;DHT22;13350;50.984;5.822;2023-06-19T03:11:37;18.90;99.90
24452;DHT22;13350;50.984;5.822;2023-06-19T03:14:04;18.80;99.90
24452;DHT22;13350;50.984;5.822;2023-06-19T03:16:32;18.80;99.90
24452;DHT22;13350;50.984;5.822;2023-06-19T03:18:59;18.80;99.90
24452;DHT22;13350;50.984;5.822;2023-06-19T03:21:26;18.70;99.90
24452;DHT22;13350;50.984;5.822;2023-06-19T03:23:55;18.80;99.90
24452;DHT22;13350;50.984;5.822;2023-06-19T03:26:21;18.80;99.90
24452;DHT22;13350;50.984;5.822;2023-06-19T03:28:50;18.80;99.90
24452;DHT22;13350;50.984;5.822;2023-06-19T03:31:17;18.80;99.90
24452;DHT22;13350;50.984;5.822;2023-06-19T03:33:44;18.70;99.90
24452;DHT22;13350;50.984;5.822;2023-06-19T03:36:11;18.60;99.90
24452;DHT22;13350;50.984;5.822;2023-06-19T03:38:37;18.70;99.90
24452;DHT22;13350;50.984;5.822;2023-06-19T03:41:06;18.70;99.90
24452;DHT22;13350;50.984;5.822;2023-06-19T03:43:33;18.60;99.90
24452;DHT22;13350;50.984;5.822;2023-06-19T03:46:00;18.70;99.90
24452;DHT22;13350;50.984;5.822;2023-06-19T03:48:27;18.70;99.90
24452;DHT22;13350;50.984;5.822;2023-06-19T03:50:54;18.70;99.90
24452;DHT22;13350;50.984;5.822;2023-06-19T03:53:21;18.80;99.90
24452;DHT22;13350;50.984;5.822;2023-06-19T03:55:48;18.90;99.90
24452;DHT22;13350;50.984;5.822;2023-06-19T03:58:16;19.00;99.90
24452;DHT22;13350;50.984;5.822;2023-06-19T04:00:43;19.00;99.90
24452;DHT22;13350;50.984;5.822;2023-06-19T04:03:10;19.10;99.90
24452;DHT22;13350;50.984;5.822;2023-06-19T04:05:37;19.10;99.90
24452;DHT22;13350;50.984;5.822;2023-06-19T04:08:04;19.00;99.90
24452;DHT22;13350;50.984;5.822;2023-06-19T04:10:31;19.00;99.90
24452;DHT22;13350;50.984;5.822;2023-06-19T04:12:58;19.00;99.90
24452;DHT22;13350;50.984;5.822;2023-06-19T04:15:26;19.00;99.90
24452;DHT22;13350;50.984;5.822;2023-06-19T04:17:53;19.00;99.90
24452;DHT22;13350;50.984;5.822;2023-06-19T04:20:20;19.10;99.90
24452;DHT22;13350;50.984;5.822;2023-06-19T04:22:47;19.10;99.90
24452;DHT22;13350;50.984;5.822;2023-06-19T04:25:14;19.10;99.90
24452;DHT22;13350;50.984;5.822;2023-06-19T04:27:41;19.10;99.90
24452;DHT22;13350;50.984;5.822;2023-06-19T04:30:10;19.10;99.90
24452;DHT22;13350;50.984;5.822;2023-06-19T04:32:39;19.10;99.90
24452;DHT22;13350;50.984;5.822;2023-06-19T04:35:07;19.10;99.90
24452;DHT22;13350;50.984;5.822;2023-06-19T04:37:34;19.20;99.90
24452;DHT22;13350;50.984;5.822;2023-06-19T04:40:01;19.30;99.90
24452;DHT22;13350;50.984;5.822;2023-06-19T04:42:29;19.30;99.90
24452;DHT22;13350;50.984;5.822;2023-06-19T04:44:56;19.30;99.90
24452;DHT22;13350;50.984;5.822;2023-06-19T04:47:24;19.30;99.90
24452;DHT22;13350;50.984;5.822;2023-06-19T04:49:53;19.30;99.90
24452;DHT22;13350;50.984;5.822;2023-06-19T04:52:20;19.30;99.90
24452;DHT22;13350;50.984;5.822;2023-06-19T04:54:47;19.40;99.90
24452;DHT22;13350;50.984;5.822;2023-06-19T04:57:14;19.40;99.90
24452;DHT22;13350;50.984;5.822;2023-06-19T04:59:41;19.40;99.90
24452;DHT22;13350;50.984;5.822;2023-06-19T05:02:09;19.40;99.90
24452;DHT22;13350;50.984;5.822;2023-06-19T05:04:36;19.40;99.90
24452;DHT22;13350;50.984;5.822;2023-06-19T05:07:05;19.40;99.90
24452;DHT22;13350;50.984;5.822;2023-06-19T05:09:32;19.50;99.90
24452;DHT22;13350;50.984;5.822;2023-06-19T05:11:59;19.50;99.90
24452;DHT22;13350;50.984;5.822;2023-06-19T05:14:26;19.60;99.90
24452;DHT22;13350;50.984;5.822;2023-06-19T05:16:53;19.60;99.90
24452;DHT22;13350;50.984;5.822;2023-06-19T05:19:20;19.60;99.90
24452;DHT22;13350;50.984;5.822;2023-06-19T05:21:47;19.60;99.90
24452;DHT22;13350;50.984;5.822;2023-06-19T05:24:16;19.60;99.90
24452;DHT22;13350;50.984;5.822;2023-06-19T05:26:42;19.70;99.90
24452;DHT22;13350;50.984;5.822;2023-06-19T05:29:09;19.70;99.90
24452;DHT22;13350;50.984;5.822;2023-06-19T05:31:36;19.70;99.90
24452;DHT22;13350;50.984;5.822;2023-06-19T05:34:03;19.70;99.90
24452;DHT22;13350;50.984;5.822;2023-06-19T05:36:30;19.40;99.90
24452;DHT22;13350;50.984;5.822;2023-06-19T05:38:57;18.90;99.90
24452;DHT22;13350;50.984;5.822;2023-06-19T05:41:26;18.70;99.90
24452;DHT22;13350;50.984;5.822;2023-06-19T05:43:53;18.50;99.90
24452;DHT22;13350;50.984;5.822;2023-06-19T05:46:20;18.40;99.90
24452;DHT22;13350;50.984;5.822;2023-06-19T05:48:47;18.40;99.90
24452;DHT22;13350;50.984;5.822;2023-06-19T05:51:14;18.40;99.90
24452;DHT22;13350;50.984;5.822;2023-06-19T05:53:41;18.40;99.90
24452;DHT22;13350;50.984;5.822;2023-06-19T05:56:09;18.50;99.90
24452;DHT22;13350;50.984;5.822;2023-06-19T05:58:37;18.60;99.90
24452;DHT22;13350;50.984;5.822;2023-06-19T06:01:04;18.60;99.90
24452;DHT22;13350;50.984;5.822;2023-06-19T06:03:32;18.80;99.90
24452;DHT22;13350;50.984;5.822;2023-06-19T06:05:59;18.90;99.90
24452;DHT22;13350;50.984;5.822;2023-06-19T06:08:28;19.00;99.90
24452;DHT22;13350;50.984;5.822;2023-06-19T06:10:55;19.00;99.90
24452;DHT22;13350;50.984;5.822;2023-06-19T06:13:22;19.00;99.90
24452;DHT22;13350;50.984;5.822;2023-06-19T06:15:50;19.00;99.90
24452;DHT22;13350;50.984;5.822;2023-06-19T06:18:17;19.10;99.90
24452;DHT22;13350;50.984;5.822;2023-06-19T06:20:44;19.20;99.90
24452;DHT22;13350;50.984;5.822;2023-06-19T06:23:11;19.30;99.90
24452;DHT22;13350;50.984;5.822;2023-06-19T06:25:38;19.40;99.90
24452;DHT22;13350;50.984;5.822;2023-06-19T06:28:05;19.40;99.90
24452;DHT22;13350;50.984;5.822;2023-06-19T06:30:32;19.70;99.90
24452;DHT22;13350;50.984;5.822;2023-06-19T06:33:00;19.90;99.90
24452;DHT22;13350;50.984;5.822;2023-06-19T06:35:27;19.90;99.90
24452;DHT22;13350;50.984;5.822;2023-06-19T06:37:54;19.90;99.90
24452;DHT22;13350;50.984;5.822;2023-06-19T06:40:21;20.00;99.90
24452;DHT22;13350;50.984;5.822;2023-06-19T06:42:48;20.10;99.90
24452;DHT22;13350;50.984;5.822;2023-06-19T06:45:15;20.20;99.90
24452;DHT22;13350;50.984;5.822;2023-06-19T06:47:42;20.30;99.90
24452;DHT22;13350;50.984;5.822;2023-06-19T06:50:10;20.20;99.90
24452;DHT22;13350;50.984;5.822;2023-06-19T06:52:37;20.20;99.90
24452;DHT22;13350;50.984;5.822;2023-06-19T06:55:05;20.50;99.90
24452;DHT22;13350;50.984;5.822;2023-06-19T06:57:32;20.70;99.90
24452;DHT22;13350;50.984;5.822;2023-06-19T06:59:58;21.10;99.90
24452;DHT22;13350;50.984;5.822;2023-06-19T07:02:25;21.10;99.90
24452;DHT22;13350;50.984;5.822;2023-06-19T07:04:52;21.40;99.90
24452;DHT22;13350;50.984;5.822;2023-06-19T07:07:21;22.10;99.90
24452;DHT22;13350;50.984;5.822;2023-06-19T07:09:47;22.80;99.90
24452;DHT22;13350;50.984;5.822;2023-06-19T07:12:14;22.80;99.90
24452;DHT22;13350;50.984;5.822;2023-06-19T07:14:41;23.00;99.90
24452;DHT22;13350;50.984;5.822;2023-06-19T07:17:08;23.10;99.90
24452;DHT22;13350;50.984;5.822;2023-06-19T07:19:35;23.30;99.90
24452;DHT22;13350;50.984;5.822;2023-06-19T07:22:02;24.20;99.90
24452;DHT22;13350;50.984;5.822;2023-06-19T07:24:30;23.90;99.90
24452;DHT22;13350;50.984;5.822;2023-06-19T07:26:57;23.80;99.90
24452;DHT22;13350;50.984;5.822;2023-06-19T07:29:24;23.60;99.90
24452;DHT22;13350;50.984;5.822;2023-06-19T07:31:52;23.90;99.90
24452;DHT22;13350;50.984;5.822;2023-06-19T07:34:19;24.30;99.90
24452;DHT22;13350;50.984;5.822;2023-06-19T07:36:46;24.50;99.90
24452;DHT22;13350;50.984;5.822;2023-06-19T07:39:14;24.60;99.90
24452;DHT22;13350;50.984;5.822;2023-06-19T07:41:42;24.50;99.90
24452;DHT22;13350;50.984;5.822;2023-06-19T07:44:10;24.20;99.90
24452;DHT22;13350;50.984;5.822;2023-06-19T07:46:37;23.70;99.90
24452;DHT22;13350;50.984;5.822;2023-06-19T07:49:03;23.00;99.90
24452;DHT22;13350;50.984;5.822;2023-06-19T07:51:30;22.80;99.90
24452;DHT22;13350;50.984;5.822;2023-06-19T07:53:57;23.10;99.90
24452;DHT22;13350;50.984;5.822;2023-06-19T07:56:24;23.70;99.90
24452;DHT22;13350;50.984;5.822;2023-06-19T07:58:53;23.50;99.90
24452;DHT22;13350;50.984;5.822;2023-06-19T08:01:20;23.60;99.90
24452;DHT22;13350;50.984;5.822;2023-06-19T08:03:47;23.50;99.90
24452;DHT22;13350;50.984;5.822;2023-06-19T08:06:14;22.70;99.90
24452;DHT22;13350;50.984;5.822;2023-06-19T08:08:41;22.60;99.90
24452;DHT22;13350;50.984;5.822;2023-06-19T08:11:08;22.70;99.90
24452;DHT22;13350;50.984;5.822;2023-06-19T08:13:35;23.00;99.90
24452;DHT22;13350;50.984;5.822;2023-06-19T08:16:03;23.40;99.90
24452;DHT22;13350;50.984;5.822;2023-06-19T08:18:30;23.40;99.90
24452;DHT22;13350;50.984;5.822;2023-06-19T08:20:58;23.40;99.90
24452;DHT22;13350;50.984;5.822;2023-06-19T08:23:25;23.90;99.90
24452;DHT22;13350;50.984;5.822;2023-06-19T08:25:52;23.80;99.90
24452;DHT22;13350;50.984;5.822;2023-06-19T08:28:19;24.60;99.90
24452;DHT22;13350;50.984;5.822;2023-06-19T08:30:46;24.40;99.90
24452;DHT22;13350;50.984;5.822;2023-06-19T08:33:14;23.80;99.90
24452;DHT22;13350;50.984;5.822;2023-06-19T08:35:41;23.70;99.90
24452;DHT22;13350;50.984;5.822;2023-06-19T08:38:09;24.70;99.90
24452;DHT22;13350;50.984;5.822;2023-06-19T08:40:37;25.90;99.90
24452;DHT22;13350;50.984;5.822;2023-06-19T08:43:04;26.70;99.90
24452;DHT22;13350;50.984;5.822;2023-06-19T08:45:30;26.80;99.90
24452;DHT22;13350;50.984;5.822;2023-06-19T08:47:58;25.70;99.90
24452;DHT22;13350;50.984;5.822;2023-06-19T08:50:26;25.00;99.90
24452;DHT22;13350;50.984;5.822;2023-06-19T08:52:54;24.90;99.90
24452;DHT22;13350;50.984;5.822;2023-06-19T08:55:21;24.60;99.90
24452;DHT22;13350;50.984;5.822;2023-06-19T08:57:49;25.00;99.90
24452;DHT22;13350;50.984;5.822;2023-06-19T09:00:22;25.20;99.90
24452;DHT22;13350;50.984;5.822;2023-06-19T09:02:50;24.50;99.90
24452;DHT22;13350;50.984;5.822;2023-06-19T09:05:18;24.10;99.90
24452;DHT22;13350;50.984;5.822;2023-06-19T09:07:55;24.80;99.90
24452;DHT22;13350;50.984;5.822;2023-06-19T09:10:22;24.80;99.90
24452;DHT22;13350;50.984;5.822;2023-06-19T09:12:56;25.10;99.90
24452;DHT22;13350;50.984;5.822;2023-06-19T09:15:23;26.00;99.90
24452;DHT22;13350;50.984;5.822;2023-06-19T09:17:59;25.80;99.90
24452;DHT22;13350;50.984;5.822;2023-06-19T09:20:26;26.30;99.90
24452;DHT22;13350;50.984;5.822;2023-06-19T09:22:56;27.10;99.90
24452;DHT22;13350;50.984;5.822;2023-06-19T09:25:23;27.50;99.90
24452;DHT22;13350;50.984;5.822;2023-06-19T09:27:52;27.20;99.90
24452;DHT22;13350;50.984;5.822;2023-06-19T09:30:19;26.70;99.90
24452;DHT22;13350;50.984;5.822;2023-06-19T09:32:46;26.90;99.90
24452;DHT22;13350;50.984;5.822;2023-06-19T09:35:13;26.90;99.90
24452;DHT22;13350;50.984;5.822;2023-06-19T09:37:40;27.20;99.90
24452;DHT22;13350;50.984;5.822;2023-06-19T09:40:09;27.50;99.90
24452;DHT22;13350;50.984;5.822;2023-06-19T09:42:37;27.30;99.90
24452;DHT22;13350;50.984;5.822;2023-06-19T09:45:04;28.00;99.90
24452;DHT22;13350;50.984;5.822;2023-06-19T09:47:33;28.00;99.90
24452;DHT22;13350;50.984;5.822;2023-06-19T09:50:02;28.10;99.90
24452;DHT22;13350;50.984;5.822;2023-06-19T09:52:30;28.20;99.90
24452;DHT22;13350;50.984;5.822;2023-06-19T09:54:57;28.20;99.90
24452;DHT22;13350;50.984;5.822;2023-06-19T09:57:25;28.10;99.90
24452;DHT22;13350;50.984;5.822;2023-06-19T09:59:54;28.00;99.90
24452;DHT22;13350;50.984;5.822;2023-06-19T10:02:23;28.40;99.90
24452;DHT22;13350;50.984;5.822;2023-06-19T10:04:50;28.40;99.90
24452;DHT22;13350;50.984;5.822;2023-06-19T10:07:18;28.60;99.90
24452;DHT22;13350;50.984;5.822;2023-06-19T10:09:58;28.50;99.90
24452;DHT22;13350;50.984;5.822;2023-06-19T10:12:36;29.30;99.90
24452;DHT22;13350;50.984;5.822;2023-06-19T10:15:16;29.50;99.90
24452;DHT22;13350;50.984;5.822;2023-06-19T10:17:47;28.80;99.90
24452;DHT22;13350;50.984;5.822;2023-06-19T10:20:19;27.90;99.90
24452;DHT22;13350;50.984;5.822;2023-06-19T10:22:50;27.50;99.90
24452;DHT22;13350;50.984;5.822;2023-06-19T10:25:21;27.90;99.90
24452;DHT22;13350;50.984;5.822;2023-06-19T10:27:50;29.10;99.90
24452;DHT22;13350;50.984;5.822;2023-06-19T10:30:18;29.30;99.90
24452;DHT22;13350;50.984;5.822;2023-06-19T10:32:46;29.80;99.90
24452;DHT22;13350;50.984;5.822;2023-06-19T10:35:13;29.40;99.90
24452;DHT22;13350;50.984;5.822;2023-06-19T10:37:40;29.80;99.90
24452;DHT22;13350;50.984;5.822;2023-06-19T10:40:07;28.70;99.90
24452;DHT22;13350;50.984;5.822;2023-06-19T10:42:36;28.50;99.90
24452;DHT22;13350;50.984;5.822;2023-06-19T10:45:05;28.90;99.90
24452;DHT22;13350;50.984;5.822;2023-06-19T10:47:33;28.40;99.90
24452;DHT22;13350;50.984;5.822;2023-06-19T10:50:00;27.90;99.90
24452;DHT22;13350;50.984;5.822;2023-06-19T10:52:28;27.40;99.90
24452;DHT22;13350;50.984;5.822;2023-06-19T10:54:55;27.30;99.90
24452;DHT22;13350;50.984;5.822;2023-06-19T10:57:28;27.50;99.90
24452;DHT22;13350;50.984;5.822;2023-06-19T10:59:55;27.90;99.90
24452;DHT22;13350;50.984;5.822;2023-06-19T11:02:25;29.00;99.90
24452;DHT22;13350;50.984;5.822;2023-06-19T11:04:52;28.20;99.90
24452;DHT22;13350;50.984;5.822;2023-06-19T11:07:20;28.40;99.90
24452;DHT22;13350;50.984;5.822;2023-06-19T11:09:47;27.90;99.90
24452;DHT22;13350;50.984;5.822;2023-06-19T11:12:18;27.70;99.90
24452;DHT22;13350;50.984;5.822;2023-06-19T11:14:46;28.30;99.90
24452;DHT22;13350;50.984;5.822;2023-06-19T11:17:13;29.20;99.90
24452;DHT22;13350;50.984;5.822;2023-06-19T11:19:41;29.90;99.90
24452;DHT22;13350;50.984;5.822;2023-06-19T11:22:10;30.50;98.30
24452;DHT22;13350;50.984;5.822;2023-06-19T11:24:42;29.00;98.50
24452;DHT22;13350;50.984;5.822;2023-06-19T11:27:13;28.50;99.40
24452;DHT22;13350;50.984;5.822;2023-06-19T11:29:42;27.80;99.90
24452;DHT22;13350;50.984;5.822;2023-06-19T11:32:16;27.50;99.90
24452;DHT22;13350;50.984;5.822;2023-06-19T11:34:50;27.80;99.90
24452;DHT22;13350;50.984;5.822;2023-06-19T11:37:18;28.00;99.90
24452;DHT22;13350;50.984;5.822;2023-06-19T11:39:47;28.60;99.90
24452;DHT22;13350;50.984;5.822;2023-06-19T11:42:14;28.70;99.90
24452;DHT22;13350;50.984;5.822;2023-06-19T11:47:25;29.00;99.30
24452;DHT22;13350;50.984;5.822;2023-06-19T11:49:54;29.70;99.00
24452;DHT22;13350;50.984;5.822;2023-06-19T11:52:21;30.10;96.70
24452;DHT22;13350;50.984;5.822;2023-06-19T11:54:48;30.20;96.60
24452;DHT22;13350;50.984;5.822;2023-06-19T11:57:15;29.80;96.50
24452;DHT22;13350;50.984;5.822;2023-06-19T11:59:42;29.50;96.20
24452;DHT22;13350;50.984;5.822;2023-06-19T12:02:09;29.90;94.40
24452;DHT22;13350;50.984;5.822;2023-06-19T12:04:36;29.90;95.40
24452;DHT22;13350;50.984;5.822;2023-06-19T12:07:05;30.00;95.40
24452;DHT22;13350;50.984;5.822;2023-06-19T12:09:33;31.50;95.40
24452;DHT22;13350;50.984;5.822;2023-06-19T12:12:00;31.80;93.10
24452;DHT22;13350;50.984;5.822;2023-06-19T12:14:28;31.50;92.20
24452;DHT22;13350;50.984;5.822;2023-06-19T12:16:55;31.70;92.00
24452;DHT22;13350;50.984;5.822;2023-06-19T12:19:21;31.80;91.10
24452;DHT22;13350;50.984;5.822;2023-06-19T12:21:48;31.50;90.90
24452;DHT22;13350;50.984;5.822;2023-06-19T12:24:17;31.20;91.20
24452;DHT22;13350;50.984;5.822;2023-06-19T12:26:44;31.40;90.90
24452;DHT22;13350;50.984;5.822;2023-06-19T12:29:11;30.80;90.60
24452;DHT22;13350;50.984;5.822;2023-06-19T12:31:38;29.80;91.70
24452;DHT22;13350;50.984;5.822;2023-06-19T12:34:05;29.50;91.80
24452;DHT22;13350;50.984;5.822;2023-06-19T12:36:32;31.00;91.70
24452;DHT22;13350;50.984;5.822;2023-06-19T12:38:59;32.00;89.90
24452;DHT22;13350;50.984;5.822;2023-06-19T12:41:29;31.80;88.70
24452;DHT22;13350;50.984;5.822;2023-06-19T12:43:56;31.50;89.20
24452;DHT22;13350;50.984;5.822;2023-06-19T12:46:23;31.80;89.60
24452;DHT22;13350;50.984;5.822;2023-06-19T12:48:50;31.30;87.40
24452;DHT22;13350;50.984;5.822;2023-06-19T12:51:17;30.70;88.40
24452;DHT22;13350;50.984;5.822;2023-06-19T12:53:44;31.20;89.30
24452;DHT22;13350;50.984;5.822;2023-06-19T12:56:11;31.10;88.70
24452;DHT22;13350;50.984;5.822;2023-06-19T12:58:39;31.20;88.70
24452;DHT22;13350;50.984;5.822;2023-06-19T13:01:06;30.60;90.50
24452;DHT22;13350;50.984;5.822;2023-06-19T13:03:33;31.10;89.80
24452;DHT22;13350;50.984;5.822;2023-06-19T13:06:00;29.90;90.50
24452;DHT22;13350;50.984;5.822;2023-06-19T13:08:27;30.20;90.20
24452;DHT22;13350;50.984;5.822;2023-06-19T13:10:54;30.50;90.20
24452;DHT22;13350;50.984;5.822;2023-06-19T13:13:21;31.10;88.70
24452;DHT22;13350;50.984;5.822;2023-06-19T13:15:50;31.00;86.80
24452;DHT22;13350;50.984;5.822;2023-06-19T13:18:17;30.50;84.40
24452;DHT22;13350;50.984;5.822;2023-06-19T13:20:44;30.90;86.90
24452;DHT22;13350;50.984;5.822;2023-06-19T13:23:13;30.90;87.20
24452;DHT22;13350;50.984;5.822;2023-06-19T13:25:40;31.40;86.20
24452;DHT22;13350;50.984;5.822;2023-06-19T13:28:07;31.80;85.00
24452;DHT22;13350;50.984;5.822;2023-06-19T13:30:34;31.30;86.10
24452;DHT22;13350;50.984;5.822;2023-06-19T13:33:02;32.20;83.30
24452;DHT22;13350;50.984;5.822;2023-06-19T13:35:29;30.90;83.10
24452;DHT22;13350;50.984;5.822;2023-06-19T13:37:57;30.30;87.20
24452;DHT22;13350;50.984;5.822;2023-06-19T13:40:25;30.50;88.10
24452;DHT22;13350;50.984;5.822;2023-06-19T13:42:52;31.90;85.70
24452;DHT22;13350;50.984;5.822;2023-06-19T13:45:20;33.30;84.00
24452;DHT22;13350;50.984;5.822;2023-06-19T13:47:47;32.30;83.20
24452;DHT22;13350;50.984;5.822;2023-06-19T13:50:15;32.30;84.10
24452;DHT22;13350;50.984;5.822;2023-06-19T13:52:44;31.70;80.80
24452;DHT22;13350;50.984;5.822;2023-06-19T13:55:11;32.10;81.00
24452;DHT22;13350;50.984;5.822;2023-06-19T13:57:38;32.80;80.60
24452;DHT22;13350;50.984;5.822;2023-06-19T14:00:06;33.40;77.60
24452;DHT22;13350;50.984;5.822;2023-06-19T14:02:34;33.80;77.80
24452;DHT22;13350;50.984;5.822;2023-06-19T14:05:01;34.00;75.70
24452;DHT22;13350;50.984;5.822;2023-06-19T14:07:29;34.10;76.40
24452;DHT22;13350;50.984;5.822;2023-06-19T14:09:56;34.60;75.50
24452;DHT22;13350;50.984;5.822;2023-06-19T14:12:23;33.10;77.50
24452;DHT22;13350;50.984;5.822;2023-06-19T14:14:50;32.90;78.10
24452;DHT22;13350;50.984;5.822;2023-06-19T14:17:17;32.90;75.50
24452;DHT22;13350;50.984;5.822;2023-06-19T14:19:44;32.60;76.50
24452;DHT22;13350;50.984;5.822;2023-06-19T14:22:11;32.90;74.70
24452;DHT22;13350;50.984;5.822;2023-06-19T14:24:39;32.00;75.60
24452;DHT22;13350;50.984;5.822;2023-06-19T14:27:06;31.80;75.60
24452;DHT22;13350;50.984;5.822;2023-06-19T14:29:33;32.00;76.20
24452;DHT22;13350;50.984;5.822;2023-06-19T14:32:00;32.00;77.00
24452;DHT22;13350;50.984;5.822;2023-06-19T14:34:28;31.90;77.10
24452;DHT22;13350;50.984;5.822;2023-06-19T14:36:55;32.50;74.80
24452;DHT22;13350;50.984;5.822;2023-06-19T14:39:21;33.20;74.60
24452;DHT22;13350;50.984;5.822;2023-06-19T14:41:50;33.00;73.40
24452;DHT22;13350;50.984;5.822;2023-06-19T14:44:17;33.20;74.10
24452;DHT22;13350;50.984;5.822;2023-06-19T14:46:43;34.80;70.90
24452;DHT22;13350;50.984;5.822;2023-06-19T14:49:11;34.70;72.00
24452;DHT22;13350;50.984;5.822;2023-06-19T14:51:39;34.40;71.60
24452;DHT22;13350;50.984;5.822;2023-06-19T14:54:06;33.90;74.50
24452;DHT22;13350;50.984;5.822;2023-06-19T14:56:33;33.40;71.50
24452;DHT22;13350;50.984;5.822;2023-06-19T14:59:01;32.70;72.50
24452;DHT22;13350;50.984;5.822;2023-06-19T15:01:29;32.50;73.10
24452;DHT22;13350;50.984;5.822;2023-06-19T15:03:55;33.20;72.30
24452;DHT22;13350;50.984;5.822;2023-06-19T15:06:22;34.20;71.80
24452;DHT22;13350;50.984;5.822;2023-06-19T15:08:49;34.40;68.50
24452;DHT22;13350;50.984;5.822;2023-06-19T15:11:16;33.90;68.40
24452;DHT22;13350;50.984;5.822;2023-06-19T15:13:43;34.20;68.40
24452;DHT22;13350;50.984;5.822;2023-06-19T15:16:12;34.70;67.30
24452;DHT22;13350;50.984;5.822;2023-06-19T15:18:39;33.50;67.20
24452;DHT22;13350;50.984;5.822;2023-06-19T15:21:06;32.80;68.50
24452;DHT22;13350;50.984;5.822;2023-06-19T15:23:33;32.60;69.10
24452;DHT22;13350;50.984;5.822;2023-06-19T15:26:00;32.70;71.30
24452;DHT22;13350;50.984;5.822;2023-06-19T15:28:27;33.20;70.80
24452;DHT22;13350;50.984;5.822;2023-06-19T15:30:54;33.60;69.10
24452;DHT22;13350;50.984;5.822;2023-06-19T15:33:23;33.20;67.80
24452;DHT22;13350;50.984;5.822;2023-06-19T15:35:50;32.60;69.40